sensor_id;sensor_type;location;lat;lon;timestamp;temperature;humidity
33105;DHT22;19476;51.448;6.674;2022-11-15T00:02:12;15.10;55.50
33105;DHT22;19476;51.448;6.674;2022-11-15T00:04:38;15.10;55.60
33105;DHT22;19476;51.448;6.674;2022-11-15T00:07:04;15.10;55.60
33105;DHT22;19476;51.448;6.674;2022-11-15T00:09:29;15.20;55.70
33105;DHT22;19476;51.448;6.674;2022-11-15T00:11:55;15.20;55.80
33105;DHT22;19476;51.448;6.674;2022-11-15T00:14:21;15.20;55.80
33105;DHT22;19476;51.448;6.674;2022-11-15T00:16:47;15.30;55.90
33105;DHT22;19476;51.448;6.674;2022-11-15T00:19:12;15.30;55.90
33105;DHT22;19476;51.448;6.674;2022-11-15T00:21:39;15.30;56.10
33105;DHT22;19476;51.448;6.674;2022-11-15T00:24:05;15.30;56.10
33105;DHT22;19476;51.448;6.674;2022-11-15T00:26:31;15.40;56.30
33105;DHT22;19476;51.448;6.674;2022-11-15T00:28:56;15.40;56.30
33105;DHT22;19476;51.448;6.674;2022-11-15T00:31:22;15.40;56.40
33105;DHT22;19476;51.448;6.674;2022-11-15T00:33:49;15.40;56.40
33105;DHT22;19476;51.448;6.674;2022-11-15T00:36:15;15.40;56.50
33105;DHT22;19476;51.448;6.674;2022-11-15T00:38:41;15.40;56.40
33105;DHT22;19476;51.448;6.674;2022-11-15T00:41:07;15.40;56.50
33105;DHT22;19476;51.448;6.674;2022-11-15T00:43:33;15.40;56.50
33105;DHT22;19476;51.448;6.674;2022-11-15T00:46:00;15.50;56.70
33105;DHT22;19476;51.448;6.674;2022-11-15T00:48:25;15.50;56.70
33105;DHT22;19476;51.448;6.674;2022-11-15T00:50:51;15.50;56.70
33105;DHT22;19476;51.448;6.674;2022-11-15T00:53:17;15.50;56.70
33105;DHT22;19476;51.448;6.674;2022-11-15T00:55:43;15.50;56.70
33105;DHT22;19476;51.448;6.674;2022-11-15T00:58:09;15.50;56.70
33105;DHT22;19476;51.448;6.674;2022-11-15T01:00:35;15.60;56.90
33105;DHT22;19476;51.448;6.674;2022-11-15T01:03:01;15.60;56.90
33105;DHT22;19476;51.448;6.674;2022-11-15T01:05:27;15.60;56.90
33105;DHT22;19476;51.448;6.674;2022-11-15T01:07:55;15.60;56.90
33105;DHT22;19476;51.448;6.674;2022-11-15T01:10:22;15.60;57.10
33105;DHT22;19476;51.448;6.674;2022-11-15T01:12:48;15.70;57.20
33105;DHT22;19476;51.448;6.674;2022-11-15T01:15:14;15.70;57.20
33105;DHT22;19476;51.448;6.674;2022-11-15T01:17:40;15.70;57.10
33105;DHT22;19476;51.448;6.674;2022-11-15T01:20:06;15.70;57.30
33105;DHT22;19476;51.448;6.674;2022-11-15T01:22:32;15.70;57.50
33105;DHT22;19476;51.448;6.674;2022-11-15T01:24:58;15.80;57.50
33105;DHT22;19476;51.448;6.674;2022-11-15T01:27:24;15.80;57.60
33105;DHT22;19476;51.448;6.674;2022-11-15T01:29:50;15.80;57.60
33105;DHT22;19476;51.448;6.674;2022-11-15T01:32:16;15.80;57.70
33105;DHT22;19476;51.448;6.674;2022-11-15T01:34:41;15.80;57.70
33105;DHT22;19476;51.448;6.674;2022-11-15T01:37:07;15.80;57.80
33105;DHT22;19476;51.448;6.674;2022-11-15T01:39:33;15.80;57.90
33105;DHT22;19476;51.448;6.674;2022-11-15T01:41:59;15.80;58.10
33105;DHT22;19476;51.448;6.674;2022-11-15T01:47:03;15.90;58.70
33105;DHT22;19476;51.448;6.674;2022-11-15T01:49:33;15.90;58.40
33105;DHT22;19476;51.448;6.674;2022-11-15T01:52:01;15.90;58.40
33105;DHT22;19476;51.448;6.674;2022-11-15T01:54:27;15.90;58.40
33105;DHT22;19476;51.448;6.674;2022-11-15T01:57:03;15.90;58.30
33105;DHT22;19476;51.448;6.674;2022-11-15T01:59:30;15.90;58.60
33105;DHT22;19476;51.448;6.674;2022-11-15T02:01:56;15.90;58.20
33105;DHT22;19476;51.448;6.674;2022-11-15T02:04:28;16.00;58.40
33105;DHT22;19476;51.448;6.674;2022-11-15T02:06:54;16.00;58.80
33105;DHT22;19476;51.448;6.674;2022-11-15T02:09:20;16.00;58.40
33105;DHT22;19476;51.448;6.674;2022-11-15T02:11:46;16.00;58.40
33105;DHT22;19476;51.448;6.674;2022-11-15T02:14:14;16.00;58.50
33105;DHT22;19476;51.448;6.674;2022-11-15T02:17:03;16.00;58.60
33105;DHT22;19476;51.448;6.674;2022-11-15T02:19:45;16.00;59.20
33105;DHT22;19476;51.448;6.674;2022-11-15T02:22:33;16.00;58.90
33105;DHT22;19476;51.448;6.674;2022-11-15T02:30:53;16.00;58.80
33105;DHT22;19476;51.448;6.674;2022-11-15T02:35:58;16.00;59.20
33105;DHT22;19476;51.448;6.674;2022-11-15T02:41:26;16.10;59.50
33105;DHT22;19476;51.448;6.674;2022-11-15T02:44:12;16.10;59.30
33105;DHT22;19476;51.448;6.674;2022-11-15T02:46:43;16.10;59.20
33105;DHT22;19476;51.448;6.674;2022-11-15T02:49:32;16.10;59.20
33105;DHT22;19476;51.448;6.674;2022-11-15T02:51:58;16.10;59.10
33105;DHT22;19476;51.448;6.674;2022-11-15T02:54:30;16.20;58.90
33105;DHT22;19476;51.448;6.674;2022-11-15T02:57:03;16.20;59.30
33105;DHT22;19476;51.448;6.674;2022-11-15T02:59:56;16.20;59.30
33105;DHT22;19476;51.448;6.674;2022-11-15T03:02:35;16.20;59.50
33105;DHT22;19476;51.448;6.674;2022-11-15T03:05:12;16.30;59.30
33105;DHT22;19476;51.448;6.674;2022-11-15T03:10:55;16.30;59.10
33105;DHT22;19476;51.448;6.674;2022-11-15T03:16:11;16.30;59.40
33105;DHT22;19476;51.448;6.674;2022-11-15T03:21:46;16.30;59.60
33105;DHT22;19476;51.448;6.674;2022-11-15T03:24:14;16.30;59.00
33105;DHT22;19476;51.448;6.674;2022-11-15T03:26:43;16.40;59.00
33105;DHT22;19476;51.448;6.674;2022-11-15T03:29:17;16.40;59.10
33105;DHT22;19476;51.448;6.674;2022-11-15T03:31:48;16.40;59.30
33105;DHT22;19476;51.448;6.674;2022-11-15T03:34:55;16.40;59.00
33105;DHT22;19476;51.448;6.674;2022-11-15T03:37:29;16.40;59.40
33105;DHT22;19476;51.448;6.674;2022-11-15T03:39:57;16.50;59.10
33105;DHT22;19476;51.448;6.674;2022-11-15T03:42:31;16.50;58.90
33105;DHT22;19476;51.448;6.674;2022-11-15T03:45:19;16.50;59.20
33105;DHT22;19476;51.448;6.674;2022-11-15T03:47:59;16.60;59.50
33105;DHT22;19476;51.448;6.674;2022-11-15T03:50:27;16.60;59.40
33105;DHT22;19476;51.448;6.674;2022-11-15T03:52:54;16.60;58.90
33105;DHT22;19476;51.448;6.674;2022-11-15T03:55:21;16.60;58.90
33105;DHT22;19476;51.448;6.674;2022-11-15T03:57:52;16.60;58.90
33105;DHT22;19476;51.448;6.674;2022-11-15T04:00:19;16.60;59.30
33105;DHT22;19476;51.448;6.674;2022-11-15T04:02:45;16.60;58.90
33105;DHT22;19476;51.448;6.674;2022-11-15T04:05:11;16.60;58.90
33105;DHT22;19476;51.448;6.674;2022-11-15T04:07:36;16.70;59.00
33105;DHT22;19476;51.448;6.674;2022-11-15T04:10:03;16.70;59.00
33105;DHT22;19476;51.448;6.674;2022-11-15T04:12:34;16.70;59.10
33105;DHT22;19476;51.448;6.674;2022-11-15T04:15:01;16.70;59.40
33105;DHT22;19476;51.448;6.674;2022-11-15T04:17:34;16.70;59.20
33105;DHT22;19476;51.448;6.674;2022-11-15T04:20:02;16.70;59.20
33105;DHT22;19476;51.448;6.674;2022-11-15T04:22:46;16.70;59.10
33105;DHT22;19476;51.448;6.674;2022-11-15T04:25:30;16.70;59.10
33105;DHT22;19476;51.448;6.674;2022-11-15T04:27:56;16.80;59.10
33105;DHT22;19476;51.448;6.674;2022-11-15T04:30:22;16.70;59.10
33105;DHT22;19476;51.448;6.674;2022-11-15T04:32:47;16.80;59.20
33105;DHT22;19476;51.448;6.674;2022-11-15T04:35:13;16.80;59.20
33105;DHT22;19476;51.448;6.674;2022-11-15T04:37:39;16.80;59.30
33105;DHT22;19476;51.448;6.674;2022-11-15T04:40:05;16.80;59.30
33105;DHT22;19476;51.448;6.674;2022-11-15T04:42:31;16.80;59.30
33105;DHT22;19476;51.448;6.674;2022-11-15T04:44:57;16.80;59.30
33105;DHT22;19476;51.448;6.674;2022-11-15T04:47:22;16.80;59.30
33105;DHT22;19476;51.448;6.674;2022-11-15T04:49:48;16.80;59.20
33105;DHT22;19476;51.448;6.674;2022-11-15T04:52:14;16.80;59.20
33105;DHT22;19476;51.448;6.674;2022-11-15T04:54:40;16.90;59.30
33105;DHT22;19476;51.448;6.674;2022-11-15T04:57:07;16.90;59.40
33105;DHT22;19476;51.448;6.674;2022-11-15T04:59:33;16.90;59.40
33105;DHT22;19476;51.448;6.674;2022-11-15T05:01:58;16.90;59.50
33105;DHT22;19476;51.448;6.674;2022-11-15T05:04:25;16.90;59.50
33105;DHT22;19476;51.448;6.674;2022-11-15T05:06:51;16.90;59.50
33105;DHT22;19476;51.448;6.674;2022-11-15T05:09:18;16.90;59.60
33105;DHT22;19476;51.448;6.674;2022-11-15T05:11:44;16.90;59.60
33105;DHT22;19476;51.448;6.674;2022-11-15T05:14:11;16.90;59.50
33105;DHT22;19476;51.448;6.674;2022-11-15T05:16:38;16.90;59.50
33105;DHT22;19476;51.448;6.674;2022-11-15T05:19:04;16.90;59.50
33105;DHT22;19476;51.448;6.674;2022-11-15T05:21:31;17.00;59.60
33105;DHT22;19476;51.448;6.674;2022-11-15T05:23:56;17.00;59.50
33105;DHT22;19476;51.448;6.674;2022-11-15T05:26:22;17.00;59.50
33105;DHT22;19476;51.448;6.674;2022-11-15T05:28:54;17.00;59.50
33105;DHT22;19476;51.448;6.674;2022-11-15T05:31:21;17.00;59.80
33105;DHT22;19476;51.448;6.674;2022-11-15T05:33:46;17.00;59.50
33105;DHT22;19476;51.448;6.674;2022-11-15T05:38:57;17.00;59.90
33105;DHT22;19476;51.448;6.674;2022-11-15T05:41:41;17.00;59.30
33105;DHT22;19476;51.448;6.674;2022-11-15T05:44:11;17.00;59.90
33105;DHT22;19476;51.448;6.674;2022-11-15T05:46:40;17.00;59.40
33105;DHT22;19476;51.448;6.674;2022-11-15T05:49:08;17.00;59.40
33105;DHT22;19476;51.448;6.674;2022-11-15T05:51:36;17.00;59.40
33105;DHT22;19476;51.448;6.674;2022-11-15T05:54:02;17.00;59.30
33105;DHT22;19476;51.448;6.674;2022-11-15T05:56:29;17.00;59.40
33105;DHT22;19476;51.448;6.674;2022-11-15T05:58:56;17.00;59.40
33105;DHT22;19476;51.448;6.674;2022-11-15T06:01:23;17.00;59.50
33105;DHT22;19476;51.448;6.674;2022-11-15T06:03:50;17.00;59.50
33105;DHT22;19476;51.448;6.674;2022-11-15T06:06:16;17.00;59.40
33105;DHT22;19476;51.448;6.674;2022-11-15T06:08:41;17.00;59.50
33105;DHT22;19476;51.448;6.674;2022-11-15T06:11:07;17.00;59.50
33105;DHT22;19476;51.448;6.674;2022-11-15T06:13:34;17.00;59.60
33105;DHT22;19476;51.448;6.674;2022-11-15T06:16:00;17.00;59.80
33105;DHT22;19476;51.448;6.674;2022-11-15T06:18:26;17.00;59.90
33105;DHT22;19476;51.448;6.674;2022-11-15T06:20:52;17.00;59.80
33105;DHT22;19476;51.448;6.674;2022-11-15T06:23:18;17.00;59.80
33105;DHT22;19476;51.448;6.674;2022-11-15T06:25:43;17.00;59.80
33105;DHT22;19476;51.448;6.674;2022-11-15T06:28:09;17.00;59.80
33105;DHT22;19476;51.448;6.674;2022-11-15T06:30:35;17.00;59.70
33105;DHT22;19476;51.448;6.674;2022-11-15T06:33:02;17.00;59.70
33105;DHT22;19476;51.448;6.674;2022-11-15T06:35:29;17.00;59.80
33105;DHT22;19476;51.448;6.674;2022-11-15T06:37:55;17.00;59.80
33105;DHT22;19476;51.448;6.674;2022-11-15T06:40:21;17.00;59.70
33105;DHT22;19476;51.448;6.674;2022-11-15T06:42:47;17.00;59.60
33105;DHT22;19476;51.448;6.674;2022-11-15T06:45:12;17.00;59.60
33105;DHT22;19476;51.448;6.674;2022-11-15T06:47:46;17.00;59.60
33105;DHT22;19476;51.448;6.674;2022-11-15T06:50:12;17.10;59.90
33105;DHT22;19476;51.448;6.674;2022-11-15T06:52:38;17.10;59.60
33105;DHT22;19476;51.448;6.674;2022-11-15T06:55:04;17.10;59.60
33105;DHT22;19476;51.448;6.674;2022-11-15T06:57:30;17.10;59.70
33105;DHT22;19476;51.448;6.674;2022-11-15T06:59:56;17.10;59.70
33105;DHT22;19476;51.448;6.674;2022-11-15T07:02:21;17.10;59.60
33105;DHT22;19476;51.448;6.674;2022-11-15T07:04:47;17.00;59.70
33105;DHT22;19476;51.448;6.674;2022-11-15T07:07:13;17.00;59.70
33105;DHT22;19476;51.448;6.674;2022-11-15T07:09:39;17.00;59.70
33105;DHT22;19476;51.448;6.674;2022-11-15T07:12:05;17.00;59.70
33105;DHT22;19476;51.448;6.674;2022-11-15T07:14:31;17.00;59.70
33105;DHT22;19476;51.448;6.674;2022-11-15T07:16:56;17.00;59.80
33105;DHT22;19476;51.448;6.674;2022-11-15T07:19:22;17.00;59.70
33105;DHT22;19476;51.448;6.674;2022-11-15T07:21:48;17.00;59.60
33105;DHT22;19476;51.448;6.674;2022-11-15T07:24:14;17.00;59.60
33105;DHT22;19476;51.448;6.674;2022-11-15T07:26:39;17.00;59.60
33105;DHT22;19476;51.448;6.674;2022-11-15T07:29:05;17.00;59.60
33105;DHT22;19476;51.448;6.674;2022-11-15T07:31:31;17.00;59.50
33105;DHT22;19476;51.448;6.674;2022-11-15T07:33:57;17.00;59.40
33105;DHT22;19476;51.448;6.674;2022-11-15T07:36:23;17.00;59.50
33105;DHT22;19476;51.448;6.674;2022-11-15T07:38:48;17.00;59.60
33105;DHT22;19476;51.448;6.674;2022-11-15T07:41:14;17.00;59.70
33105;DHT22;19476;51.448;6.674;2022-11-15T07:43:40;17.00;59.80
33105;DHT22;19476;51.448;6.674;2022-11-15T07:46:07;17.00;59.80
33105;DHT22;19476;51.448;6.674;2022-11-15T07:48:38;17.00;60.00
33105;DHT22;19476;51.448;6.674;2022-11-15T07:51:06;16.90;60.00
33105;DHT22;19476;51.448;6.674;2022-11-15T07:53:32;16.90;60.00
33105;DHT22;19476;51.448;6.674;2022-11-15T07:55:58;16.90;60.00
33105;DHT22;19476;51.448;6.674;2022-11-15T07:58:24;16.90;60.00
33105;DHT22;19476;51.448;6.674;2022-11-15T08:00:50;16.90;60.00
33105;DHT22;19476;51.448;6.674;2022-11-15T08:03:16;16.80;59.90
33105;DHT22;19476;51.448;6.674;2022-11-15T08:05:43;16.80;59.90
33105;DHT22;19476;51.448;6.674;2022-11-15T08:08:15;16.70;59.80
33105;DHT22;19476;51.448;6.674;2022-11-15T08:10:41;16.70;59.80
33105;DHT22;19476;51.448;6.674;2022-11-15T08:13:09;16.60;59.80
33105;DHT22;19476;51.448;6.674;2022-11-15T08:15:37;16.60;60.00
33105;DHT22;19476;51.448;6.674;2022-11-15T08:18:14;16.50;60.10
33105;DHT22;19476;51.448;6.674;2022-11-15T08:20:41;16.50;60.70
33105;DHT22;19476;51.448;6.674;2022-11-15T08:23:09;16.40;60.50
33105;DHT22;19476;51.448;6.674;2022-11-15T08:25:36;16.40;60.60
33105;DHT22;19476;51.448;6.674;2022-11-15T08:28:04;16.40;60.70
33105;DHT22;19476;51.448;6.674;2022-11-15T08:30:38;16.30;60.90
33105;DHT22;19476;51.448;6.674;2022-11-15T08:33:11;16.30;61.10
33105;DHT22;19476;51.448;6.674;2022-11-15T08:35:38;16.30;61.10
33105;DHT22;19476;51.448;6.674;2022-11-15T08:38:04;16.30;61.00
33105;DHT22;19476;51.448;6.674;2022-11-15T08:40:29;16.30;60.90
33105;DHT22;19476;51.448;6.674;2022-11-15T08:42:55;16.30;61.00
33105;DHT22;19476;51.448;6.674;2022-11-15T08:45:21;16.40;61.10
33105;DHT22;19476;51.448;6.674;2022-11-15T08:47:47;16.40;61.20
33105;DHT22;19476;51.448;6.674;2022-11-15T08:50:13;16.40;61.30
33105;DHT22;19476;51.448;6.674;2022-11-15T08:52:39;16.40;61.30
33105;DHT22;19476;51.448;6.674;2022-11-15T08:55:05;16.70;61.50
33105;DHT22;19476;51.448;6.674;2022-11-15T08:57:31;16.50;62.00
33105;DHT22;19476;51.448;6.674;2022-11-15T08:59:57;16.50;61.40
33105;DHT22;19476;51.448;6.674;2022-11-15T09:02:23;16.60;61.30
33105;DHT22;19476;51.448;6.674;2022-11-15T09:04:49;16.70;61.30
33105;DHT22;19476;51.448;6.674;2022-11-15T09:07:15;16.70;61.20
33105;DHT22;19476;51.448;6.674;2022-11-15T09:09:41;16.70;61.10
33105;DHT22;19476;51.448;6.674;2022-11-15T09:12:08;16.80;61.00
33105;DHT22;19476;51.448;6.674;2022-11-15T09:14:34;16.80;60.90
33105;DHT22;19476;51.448;6.674;2022-11-15T09:17:00;16.80;60.70
33105;DHT22;19476;51.448;6.674;2022-11-15T09:19:26;16.80;60.60
33105;DHT22;19476;51.448;6.674;2022-11-15T09:21:52;16.80;60.50
33105;DHT22;19476;51.448;6.674;2022-11-15T09:24:18;16.80;60.50
33105;DHT22;19476;51.448;6.674;2022-11-15T09:26:44;16.90;60.50
33105;DHT22;19476;51.448;6.674;2022-11-15T09:29:10;16.90;60.50
33105;DHT22;19476;51.448;6.674;2022-11-15T09:31:38;16.90;60.40
33105;DHT22;19476;51.448;6.674;2022-11-15T09:34:04;16.90;60.40
33105;DHT22;19476;51.448;6.674;2022-11-15T09:36:30;16.90;60.30
33105;DHT22;19476;51.448;6.674;2022-11-15T09:38:58;16.90;60.30
33105;DHT22;19476;51.448;6.674;2022-11-15T09:41:36;16.90;60.60
33105;DHT22;19476;51.448;6.674;2022-11-15T09:44:12;17.00;60.70
33105;DHT22;19476;51.448;6.674;2022-11-15T09:49:36;17.10;61.00
33105;DHT22;19476;51.448;6.674;2022-11-15T09:52:02;17.10;60.50
33105;DHT22;19476;51.448;6.674;2022-11-15T09:54:37;17.20;60.20
33105;DHT22;19476;51.448;6.674;2022-11-15T09:57:16;17.20;59.80
33105;DHT22;19476;51.448;6.674;2022-11-15T10:05:43;17.30;58.00
33105;DHT22;19476;51.448;6.674;2022-11-15T10:08:24;17.30;57.70
33105;DHT22;19476;51.448;6.674;2022-11-15T10:10:59;17.30;57.30
33105;DHT22;19476;51.448;6.674;2022-11-15T10:13:30;17.30;56.80
33105;DHT22;19476;51.448;6.674;2022-11-15T10:18:53;17.30;56.30
33105;DHT22;19476;51.448;6.674;2022-11-15T10:21:37;17.40;56.50
33105;DHT22;19476;51.448;6.674;2022-11-15T10:24:12;17.40;55.70
33105;DHT22;19476;51.448;6.674;2022-11-15T10:26:47;17.40;55.30
33105;DHT22;19476;51.448;6.674;2022-11-15T10:29:20;17.40;55.70
33105;DHT22;19476;51.448;6.674;2022-11-15T10:31:46;17.40;55.20
33105;DHT22;19476;51.448;6.674;2022-11-15T10:34:18;17.40;55.50
33105;DHT22;19476;51.448;6.674;2022-11-15T10:36:58;17.40;54.40
33105;DHT22;19476;51.448;6.674;2022-11-15T10:39:24;17.40;54.00
33105;DHT22;19476;51.448;6.674;2022-11-15T10:41:51;17.50;54.50
33105;DHT22;19476;51.448;6.674;2022-11-15T10:47:06;17.50;53.60
33105;DHT22;19476;51.448;6.674;2022-11-15T10:49:33;17.50;52.90
33105;DHT22;19476;51.448;6.674;2022-11-15T10:52:04;17.50;53.50
33105;DHT22;19476;51.448;6.674;2022-11-15T10:54:58;17.50;54.00
33105;DHT22;19476;51.448;6.674;2022-11-15T10:57:33;17.60;52.20
33105;DHT22;19476;51.448;6.674;2022-11-15T11:00:27;17.60;52.00
33105;DHT22;19476;51.448;6.674;2022-11-15T11:03:01;17.60;52.00
33105;DHT22;19476;51.448;6.674;2022-11-15T11:05:31;17.60;51.80
33105;DHT22;19476;51.448;6.674;2022-11-15T11:08:03;17.90;51.80
33105;DHT22;19476;51.448;6.674;2022-11-15T11:10:30;17.70;51.60
33105;DHT22;19476;51.448;6.674;2022-11-15T11:13:13;17.70;51.70
33105;DHT22;19476;51.448;6.674;2022-11-15T11:15:40;17.70;50.50
33105;DHT22;19476;51.448;6.674;2022-11-15T11:18:33;17.70;50.70
33105;DHT22;19476;51.448;6.674;2022-11-15T11:21:09;17.80;50.20
33105;DHT22;19476;51.448;6.674;2022-11-15T11:23:54;17.80;50.30
33105;DHT22;19476;51.448;6.674;2022-11-15T11:26:35;17.90;50.20
33105;DHT22;19476;51.448;6.674;2022-11-15T11:32:01;17.90;49.60
33105;DHT22;19476;51.448;6.674;2022-11-15T11:43:08;18.00;48.60
33105;DHT22;19476;51.448;6.674;2022-11-15T11:45:42;18.10;48.50
33105;DHT22;19476;51.448;6.674;2022-11-15T11:50:42;18.10;48.30
33105;DHT22;19476;51.448;6.674;2022-11-15T11:55:40;18.10;48.20
33105;DHT22;19476;51.448;6.674;2022-11-15T11:58:16;18.20;48.40
33105;DHT22;19476;51.448;6.674;2022-11-15T12:06:51;18.30;47.40
33105;DHT22;19476;51.448;6.674;2022-11-15T12:09:32;18.40;47.20
33105;DHT22;19476;51.448;6.674;2022-11-15T12:12:18;18.40;47.00
33105;DHT22;19476;51.448;6.674;2022-11-15T12:14:53;18.50;47.00
33105;DHT22;19476;51.448;6.674;2022-11-15T12:17:24;18.60;46.70
33105;DHT22;19476;51.448;6.674;2022-11-15T12:19:52;18.60;46.40
33105;DHT22;19476;51.448;6.674;2022-11-15T12:28:37;18.80;45.00
33105;DHT22;19476;51.448;6.674;2022-11-15T12:31:17;18.90;44.80
33105;DHT22;19476;51.448;6.674;2022-11-15T12:33:47;19.00;44.60
33105;DHT22;19476;51.448;6.674;2022-11-15T12:38:53;19.10;43.30
33105;DHT22;19476;51.448;6.674;2022-11-15T12:41:30;19.20;44.20
33105;DHT22;19476;51.448;6.674;2022-11-15T12:43:57;19.30;44.00
33105;DHT22;19476;51.448;6.674;2022-11-15T12:49:02;19.50;43.60
33105;DHT22;19476;51.448;6.674;2022-11-15T12:59:56;19.90;41.00
33105;DHT22;19476;51.448;6.674;2022-11-15T13:02:35;20.10;41.00
33105;DHT22;19476;51.448;6.674;2022-11-15T13:17:46;20.60;39.80
33105;DHT22;19476;51.448;6.674;2022-11-15T13:25:21;20.60;40.10
33105;DHT22;19476;51.448;6.674;2022-11-15T13:27:50;20.60;39.90
33105;DHT22;19476;51.448;6.674;2022-11-15T13:30:22;20.60;40.10
33105;DHT22;19476;51.448;6.674;2022-11-15T13:32:49;20.60;39.70
33105;DHT22;19476;51.448;6.674;2022-11-15T13:35:24;20.50;40.10
33105;DHT22;19476;51.448;6.674;2022-11-15T13:37:52;20.40;39.90
33105;DHT22;19476;51.448;6.674;2022-11-15T13:40:26;20.30;40.40
33105;DHT22;19476;51.448;6.674;2022-11-15T13:42:58;20.20;40.80
33105;DHT22;19476;51.448;6.674;2022-11-15T13:45:24;20.10;41.10
33105;DHT22;19476;51.448;6.674;2022-11-15T13:47:55;20.00;41.30
33105;DHT22;19476;51.448;6.674;2022-11-15T13:50:30;19.90;41.40
33105;DHT22;19476;51.448;6.674;2022-11-15T13:53:00;20.00;41.80
33105;DHT22;19476;51.448;6.674;2022-11-15T13:55:29;19.80;41.90
33105;DHT22;19476;51.448;6.674;2022-11-15T13:58:02;19.80;41.90
33105;DHT22;19476;51.448;6.674;2022-11-15T14:00:41;19.80;42.00
33105;DHT22;19476;51.448;6.674;2022-11-15T14:03:29;19.70;42.20
33105;DHT22;19476;51.448;6.674;2022-11-15T14:08:32;19.60;42.30
33105;DHT22;19476;51.448;6.674;2022-11-15T14:13:34;19.50;42.60
33105;DHT22;19476;51.448;6.674;2022-11-15T14:16:18;19.50;42.90
33105;DHT22;19476;51.448;6.674;2022-11-15T14:18:47;19.40;42.80
33105;DHT22;19476;51.448;6.674;2022-11-15T14:21:14;19.40;43.10
33105;DHT22;19476;51.448;6.674;2022-11-15T14:23:40;19.30;43.40
33105;DHT22;19476;51.448;6.674;2022-11-15T14:26:10;19.30;43.40
33105;DHT22;19476;51.448;6.674;2022-11-15T14:28:37;19.30;43.40
33105;DHT22;19476;51.448;6.674;2022-11-15T14:31:11;19.20;43.30
33105;DHT22;19476;51.448;6.674;2022-11-15T14:33:39;19.20;43.30
33105;DHT22;19476;51.448;6.674;2022-11-15T14:36:10;19.20;43.50
33105;DHT22;19476;51.448;6.674;2022-11-15T14:38:36;19.10;43.60
33105;DHT22;19476;51.448;6.674;2022-11-15T14:41:02;19.10;43.70
33105;DHT22;19476;51.448;6.674;2022-11-15T14:43:28;19.10;43.70
33105;DHT22;19476;51.448;6.674;2022-11-15T14:45:54;19.00;43.70
33105;DHT22;19476;51.448;6.674;2022-11-15T14:48:20;19.00;43.90
33105;DHT22;19476;51.448;6.674;2022-11-15T14:50:47;18.90;44.00
33105;DHT22;19476;51.448;6.674;2022-11-15T14:53:17;18.90;44.20
33105;DHT22;19476;51.448;6.674;2022-11-15T14:55:43;18.90;44.30
33105;DHT22;19476;51.448;6.674;2022-11-15T14:58:09;18.80;44.40
33105;DHT22;19476;51.448;6.674;2022-11-15T15:00:37;18.80;44.60
33105;DHT22;19476;51.448;6.674;2022-11-15T15:03:05;18.70;44.80
33105;DHT22;19476;51.448;6.674;2022-11-15T15:05:42;18.70;45.00
33105;DHT22;19476;51.448;6.674;2022-11-15T15:08:09;18.70;45.20
33105;DHT22;19476;51.448;6.674;2022-11-15T15:10:41;18.70;45.40
33105;DHT22;19476;51.448;6.674;2022-11-15T15:13:20;19.00;45.80
33105;DHT22;19476;51.448;6.674;2022-11-15T15:15:47;18.60;45.70
33105;DHT22;19476;51.448;6.674;2022-11-15T15:18:13;18.60;45.80
33105;DHT22;19476;51.448;6.674;2022-11-15T15:20:40;18.60;46.00
33105;DHT22;19476;51.448;6.674;2022-11-15T15:23:19;18.60;46.20
33105;DHT22;19476;51.448;6.674;2022-11-15T15:25:46;18.60;46.40
33105;DHT22;19476;51.448;6.674;2022-11-15T15:28:13;18.50;46.30
33105;DHT22;19476;51.448;6.674;2022-11-15T15:30:39;18.50;46.40
33105;DHT22;19476;51.448;6.674;2022-11-15T15:33:06;18.50;46.50
33105;DHT22;19476;51.448;6.674;2022-11-15T15:35:33;18.50;46.60
33105;DHT22;19476;51.448;6.674;2022-11-15T15:38:00;18.40;46.70
33105;DHT22;19476;51.448;6.674;2022-11-15T15:40:28;18.40;46.80
33105;DHT22;19476;51.448;6.674;2022-11-15T15:42:54;18.40;47.00
33105;DHT22;19476;51.448;6.674;2022-11-15T15:45:20;18.40;47.00
33105;DHT22;19476;51.448;6.674;2022-11-15T15:47:46;18.30;47.10
33105;DHT22;19476;51.448;6.674;2022-11-15T15:50:28;18.30;47.20
33105;DHT22;19476;51.448;6.674;2022-11-15T15:52:57;18.30;47.40
33105;DHT22;19476;51.448;6.674;2022-11-15T15:55:23;18.30;47.50
33105;DHT22;19476;51.448;6.674;2022-11-15T15:57:49;18.30;47.60
33105;DHT22;19476;51.448;6.674;2022-11-15T16:00:16;18.30;47.60
33105;DHT22;19476;51.448;6.674;2022-11-15T16:02:42;18.20;47.70
33105;DHT22;19476;51.448;6.674;2022-11-15T16:05:09;18.20;47.70
33105;DHT22;19476;51.448;6.674;2022-11-15T16:07:36;18.20;47.90
33105;DHT22;19476;51.448;6.674;2022-11-15T16:10:09;18.20;47.90
33105;DHT22;19476;51.448;6.674;2022-11-15T16:12:42;18.20;48.10
33105;DHT22;19476;51.448;6.674;2022-11-15T16:15:08;18.20;48.10
33105;DHT22;19476;51.448;6.674;2022-11-15T16:17:37;18.20;48.20
33105;DHT22;19476;51.448;6.674;2022-11-15T16:20:05;18.20;48.30
33105;DHT22;19476;51.448;6.674;2022-11-15T16:22:31;18.10;48.30
33105;DHT22;19476;51.448;6.674;2022-11-15T16:24:57;18.10;48.30
33105;DHT22;19476;51.448;6.674;2022-11-15T16:27:23;18.20;48.40
33105;DHT22;19476;51.448;6.674;2022-11-15T16:29:49;18.10;48.40
33105;DHT22;19476;51.448;6.674;2022-11-15T16:32:15;18.10;48.50
33105;DHT22;19476;51.448;6.674;2022-11-15T16:34:41;18.20;48.50
33105;DHT22;19476;51.448;6.674;2022-11-15T16:37:23;18.20;48.60
33105;DHT22;19476;51.448;6.674;2022-11-15T16:39:50;18.10;48.60
33105;DHT22;19476;51.448;6.674;2022-11-15T16:42:16;18.10;48.60
33105;DHT22;19476;51.448;6.674;2022-11-15T16:44:42;18.10;48.80
33105;DHT22;19476;51.448;6.674;2022-11-15T16:47:26;18.10;48.70
33105;DHT22;19476;51.448;6.674;2022-11-15T16:49:51;18.10;48.80
33105;DHT22;19476;51.448;6.674;2022-11-15T16:52:17;18.10;48.70
33105;DHT22;19476;51.448;6.674;2022-11-15T16:54:43;18.10;48.80
33105;DHT22;19476;51.448;6.674;2022-11-15T16:57:10;18.10;48.80
33105;DHT22;19476;51.448;6.674;2022-11-15T16:59:36;18.10;48.90
33105;DHT22;19476;51.448;6.674;2022-11-15T17:02:02;18.10;49.00
33105;DHT22;19476;51.448;6.674;2022-11-15T17:04:28;18.10;49.00
33105;DHT22;19476;51.448;6.674;2022-11-15T17:06:58;18.10;49.20
33105;DHT22;19476;51.448;6.674;2022-11-15T17:09:24;18.10;49.30
33105;DHT22;19476;51.448;6.674;2022-11-15T17:11:50;18.00;49.30
33105;DHT22;19476;51.448;6.674;2022-11-15T17:14:17;18.00;49.40
33105;DHT22;19476;51.448;6.674;2022-11-15T17:16:43;18.00;49.60
33105;DHT22;19476;51.448;6.674;2022-11-15T17:19:14;18.00;49.60
33105;DHT22;19476;51.448;6.674;2022-11-15T17:21:44;18.00;49.70
33105;DHT22;19476;51.448;6.674;2022-11-15T17:24:10;18.00;49.70
33105;DHT22;19476;51.448;6.674;2022-11-15T17:26:37;18.00;49.70
33105;DHT22;19476;51.448;6.674;2022-11-15T17:29:03;18.00;49.70